Evans, CO (80620)

20:07 MDT 27. Srpen 2016 (GMT -0600)
Ross Hall - UNC | | Change Station

Výška 4790 ft 40.40 °N, 104.70 °W | Updated 57 seconds ago

Clear
Jasno
75.0 °F
Pocit jako 77 °F
S
0.0
Vítr proměnlivý Vítr od VJV
Gusts 3.0 mil/h

Dnes
Vysoké -- | Nízké -- °F
--% Možnost srážek
Včera
Vysoké -- | Nízké -- °F
Precip. -- inčů
Tlak 30.04 inčů
Viditelnost 10.0 mílí
Zataženo Jasno
Tepelný index 77 °F
Rosný bod 46 °F
Vlhkost 36%
Dešťové srážky 0.00 inčů
Sněhová pokrývka Není k dispozici
6:21 AM 7:37 PM
Ubývající srpek, 19% visible
METAR KGXY 280155Z 13005KT 10SM CLR 21/08 A3004 RMK AO1
Tlak 30.04 inčů
Viditelnost 10.0 mílí
Zataženo Jasno
Tepelný index 77 °F
Rosný bod 46 °F
Vlhkost 36%
Dešťové srážky 0.00 inčů
Sněhová pokrývka Není k dispozici
6:21 AM 7:37 PM
Ubývající srpek, 19% visible
METAR KGXY 280155Z 13005KT 10SM CLR 21/08 A3004 RMK AO1

10-Day Weather Forecast

Almanac

Astronomie

Aug. 27, 2016 Východ Západ
Skutečný čas
Občanský soumrak
Námořní soumrak
Astronomický soumrak
Měsíc
Délka denního světla
Délka dne
Tomorrow will be .
, % of the Moon is Illuminated

Dnešní extrémy

State Highs State Lows

Community

WunderPhotos

Upload Photos

1,935,491 snímků staženo!

WunderBlog® & News

Nearby

Kvalita ovzduší

  Kvalita ovzduší Index kvality ovzduší Polutant
Not available.

Výška sněhu

Station Hloubka Nadmořská výška

Seizmická činnost

Město Distance Mag. Čas & datum
Minimální zobrazený rozsah je 2.5.

Pobřežní teplota vody

Lokalita Teplota

Stations

Poblíž povětrnostní stanice

Lokace stanice Tepl. Ochlazování větrem Rosný bod Vlhkost Vítr Precip. Výška Čas hlášení Typ
                   

Watches & Warnings

There are currently no watches in effect.